Etusivu
METAR-TAF:

METAR-TAF

Lentoasemat :

Port Isabel-Cameron County Airport

Port Isabel, Texas, Yhdysvallat

Leveyspiiri: 26-09-33N, Pituuspiiri: 097-20-15W, korkeus merenpinnasta: 5 m

Tämänhetkinen sää

Tämä raportti tehtiin 12 minuuttia sitten, kello 00.12 UTC
Tuuli 11 kn etelästä/kaakosta puuskistuen 19 kn:hen
Lämpötila 24°C
Kosteus 89%
Ilmanpaine 1013 hPa
Näkyvyys: 16.1 km
Hajonneita pilviä 1400 ft:n korkeudessa
Pilvistä 2200 ft:n korkeudessa

METAR: KPIL 080012Z AUTO 16011G19KT 10SM BKN014 OVC022 24/22 A2990 RMK AO2 T02390217

Aika: 18:24 (00:24 UTC)


TAF: puuttuu

Säähavainnot ja -ennusteet yli 4000 lentoasemalta (METAR- ja TAF-raportit).

Käytössä olevat sääasemat on merkitty karttaan keltaisilla ja punaisilla pisteillä.

Aseta hiiri pisteen päälle nähdäksesi sääaseman nimen.

Klikkaa sitten nähdäksesi säähavainnot ja -ennusteet.

Kartan vaihtaminen: klikkaa mustalla rastilla varustettuja vihreitä pisteitä, niin voit zoomata sisään; viivalla varustettua vihreää pistettä, niin voit zoomata ulos tai vihreitä nuolia, niin pääset viereisille kartoille.


METAR-TAF: